sensor_id;sensor_type;location;lat;lon;timestamp;P1;durP1;ratioP1;P2;durP2;ratioP2
2860;SDS011;1438;50.922;6.704;2022-10-30T00:02:25;15.73;;;6.13;;
2860;SDS011;1438;50.922;6.704;2022-10-30T00:04:51;9.80;;;4.73;;
2860;SDS011;1438;50.922;6.704;2022-10-30T00:07:16;9.80;;;5.23;;
2860;SDS011;1438;50.922;6.704;2022-10-30T00:09:42;10.67;;;5.60;;
2860;SDS011;1438;50.922;6.704;2022-10-30T00:12:07;11.57;;;5.63;;
2860;SDS011;1438;50.922;6.704;2022-10-30T00:14:33;15.40;;;5.90;;
2860;SDS011;1438;50.922;6.704;2022-10-30T00:16:58;19.87;;;6.83;;
2860;SDS011;1438;50.922;6.704;2022-10-30T00:19:24;11.60;;;5.80;;
2860;SDS011;1438;50.922;6.704;2022-10-30T00:21:49;13.10;;;5.70;;
2860;SDS011;1438;50.922;6.704;2022-10-30T00:24:15;13.90;;;5.87;;
2860;SDS011;1438;50.922;6.704;2022-10-30T00:26:41;11.63;;;6.20;;
2860;SDS011;1438;50.922;6.704;2022-10-30T00:29:06;9.70;;;6.40;;
2860;SDS011;1438;50.922;6.704;2022-10-30T00:31:32;12.83;;;6.00;;
2860;SDS011;1438;50.922;6.704;2022-10-30T00:33:57;19.23;;;6.00;;
2860;SDS011;1438;50.922;6.704;2022-10-30T00:36:23;12.73;;;5.47;;
2860;SDS011;1438;50.922;6.704;2022-10-30T00:38:49;11.30;;;5.60;;
2860;SDS011;1438;50.922;6.704;2022-10-30T00:41:19;13.03;;;5.63;;
2860;SDS011;1438;50.922;6.704;2022-10-30T00:43:47;11.13;;;5.80;;
2860;SDS011;1438;50.922;6.704;2022-10-30T00:48:50;12.40;;;6.03;;
2860;SDS011;1438;50.922;6.704;2022-10-30T00:51:20;18.00;;;6.07;;
2860;SDS011;1438;50.922;6.704;2022-10-30T00:53:46;7.73;;;5.20;;
2860;SDS011;1438;50.922;6.704;2022-10-30T00:56:13;10.97;;;6.07;;
2860;SDS011;1438;50.922;6.704;2022-10-30T00:58:41;11.67;;;6.30;;
2860;SDS011;1438;50.922;6.704;2022-10-30T01:01:13;13.43;;;5.90;;
2860;SDS011;1438;50.922;6.704;2022-10-30T01:03:43;12.10;;;6.00;;
2860;SDS011;1438;50.922;6.704;2022-10-30T01:06:11;17.07;;;6.27;;
2860;SDS011;1438;50.922;6.704;2022-10-30T01:08:39;9.27;;;5.63;;
2860;SDS011;1438;50.922;6.704;2022-10-30T01:11:05;11.10;;;6.10;;
2860;SDS011;1438;50.922;6.704;2022-10-30T01:13:32;6.30;;;4.80;;
2860;SDS011;1438;50.922;6.704;2022-10-30T01:16:12;11.43;;;6.30;;
2860;SDS011;1438;50.922;6.704;2022-10-30T01:18:52;11.10;;;5.53;;
2860;SDS011;1438;50.922;6.704;2022-10-30T01:26:52;11.90;;;6.07;;
2860;SDS011;1438;50.922;6.704;2022-10-30T01:29:34;13.20;;;6.23;;
2860;SDS011;1438;50.922;6.704;2022-10-30T01:35:27;8.73;;;5.60;;
2860;SDS011;1438;50.922;6.704;2022-10-30T01:38:18;10.57;;;5.53;;
2860;SDS011;1438;50.922;6.704;2022-10-30T01:40:56;11.20;;;6.00;;
2860;SDS011;1438;50.922;6.704;2022-10-30T01:43:21;11.40;;;6.60;;
2860;SDS011;1438;50.922;6.704;2022-10-30T01:54:23;12.67;;;5.70;;
2860;SDS011;1438;50.922;6.704;2022-10-30T01:57:23;12.40;;;6.47;;
2860;SDS011;1438;50.922;6.704;2022-10-30T01:59:57;13.70;;;6.00;;
2860;SDS011;1438;50.922;6.704;2022-10-30T02:02:27;9.87;;;5.70;;
2860;SDS011;1438;50.922;6.704;2022-10-30T02:04:53;17.60;;;6.30;;
2860;SDS011;1438;50.922;6.704;2022-10-30T02:07:19;9.83;;;4.97;;
2860;SDS011;1438;50.922;6.704;2022-10-30T02:09:45;14.90;;;6.47;;
2860;SDS011;1438;50.922;6.704;2022-10-30T02:12:10;12.60;;;5.87;;
2860;SDS011;1438;50.922;6.704;2022-10-30T02:14:37;10.13;;;6.70;;
2860;SDS011;1438;50.922;6.704;2022-10-30T02:17:07;14.77;;;5.50;;
2860;SDS011;1438;50.922;6.704;2022-10-30T02:19:35;12.30;;;6.00;;
2860;SDS011;1438;50.922;6.704;2022-10-30T02:22:01;17.20;;;6.50;;
2860;SDS011;1438;50.922;6.704;2022-10-30T02:24:27;10.87;;;5.83;;
2860;SDS011;1438;50.922;6.704;2022-10-30T02:26:53;9.03;;;5.70;;
2860;SDS011;1438;50.922;6.704;2022-10-30T02:29:19;16.13;;;6.90;;
2860;SDS011;1438;50.922;6.704;2022-10-30T02:31:46;9.57;;;5.43;;
2860;SDS011;1438;50.922;6.704;2022-10-30T02:34:12;8.87;;;4.90;;
2860;SDS011;1438;50.922;6.704;2022-10-30T02:36:38;8.47;;;6.03;;
2860;SDS011;1438;50.922;6.704;2022-10-30T02:39:03;12.00;;;5.40;;
2860;SDS011;1438;50.922;6.704;2022-10-30T02:41:30;12.60;;;5.53;;
2860;SDS011;1438;50.922;6.704;2022-10-30T02:43:56;9.90;;;5.73;;
2860;SDS011;1438;50.922;6.704;2022-10-30T02:46:22;12.10;;;6.00;;
2860;SDS011;1438;50.922;6.704;2022-10-30T02:48:48;15.43;;;6.30;;
2860;SDS011;1438;50.922;6.704;2022-10-30T02:51:13;11.57;;;5.60;;
2860;SDS011;1438;50.922;6.704;2022-10-30T02:53:39;11.80;;;5.60;;
2860;SDS011;1438;50.922;6.704;2022-10-30T02:56:09;11.37;;;5.50;;
2860;SDS011;1438;50.922;6.704;2022-10-30T02:58:36;8.50;;;5.83;;
2860;SDS011;1438;50.922;6.704;2022-10-30T03:01:06;13.50;;;5.27;;
2860;SDS011;1438;50.922;6.704;2022-10-30T03:03:36;8.67;;;5.37;;
2860;SDS011;1438;50.922;6.704;2022-10-30T03:06:02;8.63;;;4.73;;
2860;SDS011;1438;50.922;6.704;2022-10-30T03:08:29;13.77;;;5.60;;
2860;SDS011;1438;50.922;6.704;2022-10-30T03:11:02;12.60;;;5.13;;
2860;SDS011;1438;50.922;6.704;2022-10-30T03:13:30;9.80;;;5.00;;
2860;SDS011;1438;50.922;6.704;2022-10-30T03:16:01;9.43;;;4.90;;
2860;SDS011;1438;50.922;6.704;2022-10-30T03:18:32;8.07;;;5.73;;
2860;SDS011;1438;50.922;6.704;2022-10-30T03:20:58;8.37;;;5.30;;
2860;SDS011;1438;50.922;6.704;2022-10-30T03:23:26;11.83;;;5.80;;
2860;SDS011;1438;50.922;6.704;2022-10-30T03:25:53;7.30;;;5.17;;
2860;SDS011;1438;50.922;6.704;2022-10-30T03:28:20;13.03;;;6.20;;
2860;SDS011;1438;50.922;6.704;2022-10-30T03:30:47;9.00;;;5.33;;
2860;SDS011;1438;50.922;6.704;2022-10-30T03:33:13;9.03;;;5.70;;
2860;SDS011;1438;50.922;6.704;2022-10-30T03:35:39;11.10;;;5.50;;
2860;SDS011;1438;50.922;6.704;2022-10-30T03:38:04;11.90;;;5.17;;
2860;SDS011;1438;50.922;6.704;2022-10-30T03:40:30;14.17;;;5.23;;
2860;SDS011;1438;50.922;6.704;2022-10-30T03:42:55;16.87;;;5.30;;
2860;SDS011;1438;50.922;6.704;2022-10-30T03:45:21;6.77;;;5.30;;
2860;SDS011;1438;50.922;6.704;2022-10-30T03:47:47;11.10;;;5.17;;
2860;SDS011;1438;50.922;6.704;2022-10-30T03:50:12;10.73;;;5.40;;
2860;SDS011;1438;50.922;6.704;2022-10-30T03:52:38;7.30;;;4.70;;
2860;SDS011;1438;50.922;6.704;2022-10-30T03:55:03;12.50;;;5.17;;
2860;SDS011;1438;50.922;6.704;2022-10-30T03:57:29;10.00;;;5.30;;
2860;SDS011;1438;50.922;6.704;2022-10-30T03:59:55;12.80;;;5.00;;
2860;SDS011;1438;50.922;6.704;2022-10-30T04:02:20;10.57;;;5.23;;
2860;SDS011;1438;50.922;6.704;2022-10-30T04:04:46;12.13;;;5.27;;
2860;SDS011;1438;50.922;6.704;2022-10-30T04:07:12;9.90;;;4.90;;
2860;SDS011;1438;50.922;6.704;2022-10-30T04:09:37;9.53;;;5.50;;
2860;SDS011;1438;50.922;6.704;2022-10-30T04:12:03;15.83;;;5.70;;
2860;SDS011;1438;50.922;6.704;2022-10-30T04:14:29;13.90;;;5.37;;
2860;SDS011;1438;50.922;6.704;2022-10-30T04:16:54;10.40;;;5.20;;
2860;SDS011;1438;50.922;6.704;2022-10-30T04:19:20;12.50;;;5.37;;
2860;SDS011;1438;50.922;6.704;2022-10-30T04:21:45;9.17;;;4.73;;
2860;SDS011;1438;50.922;6.704;2022-10-30T04:24:11;10.27;;;5.50;;
2860;SDS011;1438;50.922;6.704;2022-10-30T04:26:40;10.60;;;5.40;;
2860;SDS011;1438;50.922;6.704;2022-10-30T04:29:05;10.37;;;5.97;;
2860;SDS011;1438;50.922;6.704;2022-10-30T04:31:31;11.07;;;5.83;;
2860;SDS011;1438;50.922;6.704;2022-10-30T04:33:56;7.37;;;5.23;;
2860;SDS011;1438;50.922;6.704;2022-10-30T04:36:22;16.90;;;5.13;;
2860;SDS011;1438;50.922;6.704;2022-10-30T04:38:54;6.43;;;4.30;;
2860;SDS011;1438;50.922;6.704;2022-10-30T04:41:19;12.20;;;5.10;;
2860;SDS011;1438;50.922;6.704;2022-10-30T04:43:47;8.63;;;4.80;;
2860;SDS011;1438;50.922;6.704;2022-10-30T04:46:13;12.00;;;5.00;;
2860;SDS011;1438;50.922;6.704;2022-10-30T04:48:38;6.47;;;5.40;;
2860;SDS011;1438;50.922;6.704;2022-10-30T04:51:04;10.80;;;6.00;;
2860;SDS011;1438;50.922;6.704;2022-10-30T04:53:31;11.93;;;5.23;;
2860;SDS011;1438;50.922;6.704;2022-10-30T04:55:56;10.37;;;6.03;;
2860;SDS011;1438;50.922;6.704;2022-10-30T04:58:22;7.30;;;4.80;;
2860;SDS011;1438;50.922;6.704;2022-10-30T05:00:48;12.30;;;5.67;;
2860;SDS011;1438;50.922;6.704;2022-10-30T05:03:16;9.73;;;5.50;;
2860;SDS011;1438;50.922;6.704;2022-10-30T05:05:44;10.03;;;5.50;;
2860;SDS011;1438;50.922;6.704;2022-10-30T05:08:11;7.57;;;5.40;;
2860;SDS011;1438;50.922;6.704;2022-10-30T05:10:39;8.10;;;4.70;;
2860;SDS011;1438;50.922;6.704;2022-10-30T05:13:05;8.20;;;5.70;;
2860;SDS011;1438;50.922;6.704;2022-10-30T05:15:30;9.97;;;5.60;;
2860;SDS011;1438;50.922;6.704;2022-10-30T05:17:56;17.93;;;5.57;;
2860;SDS011;1438;50.922;6.704;2022-10-30T05:20:22;10.33;;;5.63;;
2860;SDS011;1438;50.922;6.704;2022-10-30T05:22:54;10.40;;;5.73;;
2860;SDS011;1438;50.922;6.704;2022-10-30T05:25:21;10.63;;;6.60;;
2860;SDS011;1438;50.922;6.704;2022-10-30T05:27:47;12.33;;;5.40;;
2860;SDS011;1438;50.922;6.704;2022-10-30T05:30:12;9.30;;;4.80;;
2860;SDS011;1438;50.922;6.704;2022-10-30T05:32:38;9.63;;;5.00;;
2860;SDS011;1438;50.922;6.704;2022-10-30T05:35:03;10.07;;;4.20;;
2860;SDS011;1438;50.922;6.704;2022-10-30T05:37:29;10.20;;;4.97;;
2860;SDS011;1438;50.922;6.704;2022-10-30T05:39:55;8.63;;;5.00;;
2860;SDS011;1438;50.922;6.704;2022-10-30T05:42:20;10.73;;;5.50;;
2860;SDS011;1438;50.922;6.704;2022-10-30T05:44:46;10.17;;;5.03;;
2860;SDS011;1438;50.922;6.704;2022-10-30T05:47:11;6.03;;;4.60;;
2860;SDS011;1438;50.922;6.704;2022-10-30T05:49:37;9.03;;;4.50;;
2860;SDS011;1438;50.922;6.704;2022-10-30T05:52:03;11.57;;;5.40;;
2860;SDS011;1438;50.922;6.704;2022-10-30T05:54:28;10.17;;;6.37;;
2860;SDS011;1438;50.922;6.704;2022-10-30T05:56:55;10.17;;;5.50;;
2860;SDS011;1438;50.922;6.704;2022-10-30T05:59:22;10.50;;;5.63;;
2860;SDS011;1438;50.922;6.704;2022-10-30T06:01:47;9.93;;;4.93;;
2860;SDS011;1438;50.922;6.704;2022-10-30T06:04:13;12.33;;;5.50;;
2860;SDS011;1438;50.922;6.704;2022-10-30T06:06:39;13.57;;;4.87;;
2860;SDS011;1438;50.922;6.704;2022-10-30T06:09:04;8.37;;;5.33;;
2860;SDS011;1438;50.922;6.704;2022-10-30T06:11:30;10.57;;;5.70;;
2860;SDS011;1438;50.922;6.704;2022-10-30T06:13:55;12.23;;;5.93;;
2860;SDS011;1438;50.922;6.704;2022-10-30T06:16:21;14.03;;;6.50;;
2860;SDS011;1438;50.922;6.704;2022-10-30T06:18:47;9.30;;;6.30;;
2860;SDS011;1438;50.922;6.704;2022-10-30T06:21:12;10.30;;;5.10;;
2860;SDS011;1438;50.922;6.704;2022-10-30T06:23:38;8.87;;;5.70;;
2860;SDS011;1438;50.922;6.704;2022-10-30T06:26:04;13.37;;;6.00;;
2860;SDS011;1438;50.922;6.704;2022-10-30T06:28:29;16.50;;;5.80;;
2860;SDS011;1438;50.922;6.704;2022-10-30T06:30:55;15.27;;;4.83;;
2860;SDS011;1438;50.922;6.704;2022-10-30T06:33:20;11.23;;;4.97;;
2860;SDS011;1438;50.922;6.704;2022-10-30T06:35:47;10.67;;;6.40;;
2860;SDS011;1438;50.922;6.704;2022-10-30T06:38:13;11.00;;;5.80;;
2860;SDS011;1438;50.922;6.704;2022-10-30T06:40:40;13.73;;;5.70;;
2860;SDS011;1438;50.922;6.704;2022-10-30T06:43:06;9.07;;;4.70;;
2860;SDS011;1438;50.922;6.704;2022-10-30T06:45:31;8.73;;;5.60;;
2860;SDS011;1438;50.922;6.704;2022-10-30T06:48:00;8.73;;;5.50;;
2860;SDS011;1438;50.922;6.704;2022-10-30T06:50:26;14.67;;;6.00;;
2860;SDS011;1438;50.922;6.704;2022-10-30T06:52:51;13.50;;;5.13;;
2860;SDS011;1438;50.922;6.704;2022-10-30T06:55:19;8.60;;;5.10;;
2860;SDS011;1438;50.922;6.704;2022-10-30T06:57:45;11.37;;;5.70;;
2860;SDS011;1438;50.922;6.704;2022-10-30T07:00:17;15.00;;;6.17;;
2860;SDS011;1438;50.922;6.704;2022-10-30T07:02:42;8.80;;;5.67;;
2860;SDS011;1438;50.922;6.704;2022-10-30T07:05:08;15.60;;;6.50;;
2860;SDS011;1438;50.922;6.704;2022-10-30T07:07:33;14.03;;;5.47;;
2860;SDS011;1438;50.922;6.704;2022-10-30T07:09:59;11.40;;;6.30;;
2860;SDS011;1438;50.922;6.704;2022-10-30T07:12:24;8.00;;;5.40;;
2860;SDS011;1438;50.922;6.704;2022-10-30T07:14:50;10.63;;;5.90;;
2860;SDS011;1438;50.922;6.704;2022-10-30T07:17:16;9.83;;;5.80;;
2860;SDS011;1438;50.922;6.704;2022-10-30T07:19:41;14.03;;;5.20;;
2860;SDS011;1438;50.922;6.704;2022-10-30T07:22:07;11.87;;;6.00;;
2860;SDS011;1438;50.922;6.704;2022-10-30T07:24:32;12.33;;;6.17;;
2860;SDS011;1438;50.922;6.704;2022-10-30T07:26:58;13.70;;;5.57;;
2860;SDS011;1438;50.922;6.704;2022-10-30T07:29:23;10.30;;;5.67;;
2860;SDS011;1438;50.922;6.704;2022-10-30T07:31:49;10.13;;;5.20;;
2860;SDS011;1438;50.922;6.704;2022-10-30T07:34:15;11.23;;;5.60;;
2860;SDS011;1438;50.922;6.704;2022-10-30T07:36:41;12.00;;;6.37;;
2860;SDS011;1438;50.922;6.704;2022-10-30T07:39:07;10.43;;;5.47;;
2860;SDS011;1438;50.922;6.704;2022-10-30T07:41:33;12.27;;;5.80;;
2860;SDS011;1438;50.922;6.704;2022-10-30T07:43:58;10.30;;;5.77;;
2860;SDS011;1438;50.922;6.704;2022-10-30T07:46:24;9.57;;;5.50;;
2860;SDS011;1438;50.922;6.704;2022-10-30T07:48:49;8.17;;;6.20;;
2860;SDS011;1438;50.922;6.704;2022-10-30T07:51:15;11.80;;;5.67;;
2860;SDS011;1438;50.922;6.704;2022-10-30T07:53:40;12.37;;;5.40;;
2860;SDS011;1438;50.922;6.704;2022-10-30T07:56:06;15.20;;;6.70;;
2860;SDS011;1438;50.922;6.704;2022-10-30T07:58:32;13.17;;;5.67;;
2860;SDS011;1438;50.922;6.704;2022-10-30T08:00:57;15.87;;;5.60;;
2860;SDS011;1438;50.922;6.704;2022-10-30T08:03:23;7.23;;;5.00;;
2860;SDS011;1438;50.922;6.704;2022-10-30T08:05:48;8.60;;;5.80;;
2860;SDS011;1438;50.922;6.704;2022-10-30T08:08:14;8.07;;;4.63;;
2860;SDS011;1438;50.922;6.704;2022-10-30T08:10:39;9.10;;;4.73;;
2860;SDS011;1438;50.922;6.704;2022-10-30T08:13:05;9.27;;;4.90;;
2860;SDS011;1438;50.922;6.704;2022-10-30T08:15:30;9.13;;;4.63;;
2860;SDS011;1438;50.922;6.704;2022-10-30T08:17:57;11.67;;;4.60;;
2860;SDS011;1438;50.922;6.704;2022-10-30T08:20:23;18.27;;;5.57;;
2860;SDS011;1438;50.922;6.704;2022-10-30T08:22:52;13.23;;;5.43;;
2860;SDS011;1438;50.922;6.704;2022-10-30T08:25:20;7.93;;;5.30;;
2860;SDS011;1438;50.922;6.704;2022-10-30T08:30:27;6.87;;;4.90;;
2860;SDS011;1438;50.922;6.704;2022-10-30T08:32:57;12.77;;;5.30;;
2860;SDS011;1438;50.922;6.704;2022-10-30T08:35:24;14.43;;;5.03;;
2860;SDS011;1438;50.922;6.704;2022-10-30T08:37:50;11.83;;;5.73;;
2860;SDS011;1438;50.922;6.704;2022-10-30T08:40:22;13.27;;;5.50;;
2860;SDS011;1438;50.922;6.704;2022-10-30T08:42:49;13.57;;;5.20;;
2860;SDS011;1438;50.922;6.704;2022-10-30T08:45:19;7.10;;;4.67;;
2860;SDS011;1438;50.922;6.704;2022-10-30T08:47:45;10.60;;;6.03;;
2860;SDS011;1438;50.922;6.704;2022-10-30T08:50:11;13.27;;;5.83;;
2860;SDS011;1438;50.922;6.704;2022-10-30T08:52:37;8.63;;;5.27;;
2860;SDS011;1438;50.922;6.704;2022-10-30T08:55:03;8.40;;;5.20;;
2860;SDS011;1438;50.922;6.704;2022-10-30T08:57:31;6.90;;;4.77;;
2860;SDS011;1438;50.922;6.704;2022-10-30T09:00:00;9.90;;;5.30;;
2860;SDS011;1438;50.922;6.704;2022-10-30T09:02:25;10.10;;;4.50;;
2860;SDS011;1438;50.922;6.704;2022-10-30T09:04:51;8.07;;;4.97;;
2860;SDS011;1438;50.922;6.704;2022-10-30T09:07:16;12.03;;;5.10;;
2860;SDS011;1438;50.922;6.704;2022-10-30T09:09:42;11.47;;;5.40;;
2860;SDS011;1438;50.922;6.704;2022-10-30T09:12:07;10.40;;;4.90;;
2860;SDS011;1438;50.922;6.704;2022-10-30T09:14:33;9.17;;;4.83;;
2860;SDS011;1438;50.922;6.704;2022-10-30T09:16:59;13.10;;;5.40;;
2860;SDS011;1438;50.922;6.704;2022-10-30T09:19:24;9.23;;;4.37;;
2860;SDS011;1438;50.922;6.704;2022-10-30T09:21:52;5.90;;;4.40;;
2860;SDS011;1438;50.922;6.704;2022-10-30T09:24:18;10.10;;;5.50;;
2860;SDS011;1438;50.922;6.704;2022-10-30T09:26:44;8.73;;;4.20;;
2860;SDS011;1438;50.922;6.704;2022-10-30T09:29:10;13.60;;;5.30;;
2860;SDS011;1438;50.922;6.704;2022-10-30T09:31:35;11.63;;;4.23;;
2860;SDS011;1438;50.922;6.704;2022-10-30T09:34:01;12.57;;;4.50;;
2860;SDS011;1438;50.922;6.704;2022-10-30T09:36:26;5.80;;;4.30;;
2860;SDS011;1438;50.922;6.704;2022-10-30T09:38:52;11.37;;;4.70;;
2860;SDS011;1438;50.922;6.704;2022-10-30T09:44:55;11.27;;;4.60;;
2860;SDS011;1438;50.922;6.704;2022-10-30T09:47:24;6.80;;;3.90;;
2860;SDS011;1438;50.922;6.704;2022-10-30T10:03:52;7.33;;;4.30;;
2860;SDS011;1438;50.922;6.704;2022-10-30T10:06:42;12.23;;;4.00;;
2860;SDS011;1438;50.922;6.704;2022-10-30T10:09:17;11.67;;;3.70;;
2860;SDS011;1438;50.922;6.704;2022-10-30T10:12:05;8.20;;;5.07;;
2860;SDS011;1438;50.922;6.704;2022-10-30T10:14:35;10.40;;;4.40;;
2860;SDS011;1438;50.922;6.704;2022-10-30T10:17:04;11.27;;;4.57;;
2860;SDS011;1438;50.922;6.704;2022-10-30T10:19:50;17.93;;;7.40;;
2860;SDS011;1438;50.922;6.704;2022-10-30T10:24:48;8.50;;;4.40;;
2860;SDS011;1438;50.922;6.704;2022-10-30T10:30:18;8.60;;;4.70;;
2860;SDS011;1438;50.922;6.704;2022-10-30T10:35:36;8.70;;;4.07;;
2860;SDS011;1438;50.922;6.704;2022-10-30T10:49:35;12.07;;;4.60;;
2860;SDS011;1438;50.922;6.704;2022-10-30T10:52:19;11.80;;;5.10;;
2860;SDS011;1438;50.922;6.704;2022-10-30T10:57:16;9.77;;;4.53;;
2860;SDS011;1438;50.922;6.704;2022-10-30T11:00:04;6.53;;;4.23;;
2860;SDS011;1438;50.922;6.704;2022-10-30T11:05:33;10.83;;;5.10;;
2860;SDS011;1438;50.922;6.704;2022-10-30T11:08:05;7.50;;;5.00;;
2860;SDS011;1438;50.922;6.704;2022-10-30T11:10:39;7.97;;;3.97;;
2860;SDS011;1438;50.922;6.704;2022-10-30T11:13:04;12.63;;;4.60;;
2860;SDS011;1438;50.922;6.704;2022-10-30T11:18:28;7.43;;;4.20;;
2860;SDS011;1438;50.922;6.704;2022-10-30T11:21:04;5.03;;;3.53;;
2860;SDS011;1438;50.922;6.704;2022-10-30T11:23:53;8.40;;;3.73;;
2860;SDS011;1438;50.922;6.704;2022-10-30T11:31:42;10.50;;;4.80;;
2860;SDS011;1438;50.922;6.704;2022-10-30T11:41:43;6.63;;;3.57;;
2860;SDS011;1438;50.922;6.704;2022-10-30T11:44:14;14.17;;;4.30;;
2860;SDS011;1438;50.922;6.704;2022-10-30T11:46:40;7.33;;;4.17;;
2860;SDS011;1438;50.922;6.704;2022-10-30T11:49:05;10.37;;;4.83;;
2860;SDS011;1438;50.922;6.704;2022-10-30T11:51:47;11.53;;;4.30;;
2860;SDS011;1438;50.922;6.704;2022-10-30T11:54:15;7.43;;;3.60;;
2860;SDS011;1438;50.922;6.704;2022-10-30T11:56:45;9.90;;;4.07;;
2860;SDS011;1438;50.922;6.704;2022-10-30T11:59:14;18.33;;;5.60;;
2860;SDS011;1438;50.922;6.704;2022-10-30T12:01:56;8.40;;;4.10;;
2860;SDS011;1438;50.922;6.704;2022-10-30T12:04:42;8.87;;;4.40;;
2860;SDS011;1438;50.922;6.704;2022-10-30T12:09:54;7.97;;;5.10;;
2860;SDS011;1438;50.922;6.704;2022-10-30T12:12:31;5.90;;;4.30;;
2860;SDS011;1438;50.922;6.704;2022-10-30T12:17:39;9.07;;;4.20;;
2860;SDS011;1438;50.922;6.704;2022-10-30T12:20:06;7.13;;;4.73;;
2860;SDS011;1438;50.922;6.704;2022-10-30T12:22:37;11.10;;;5.80;;
2860;SDS011;1438;50.922;6.704;2022-10-30T12:25:05;9.53;;;4.27;;
2860;SDS011;1438;50.922;6.704;2022-10-30T12:27:48;8.80;;;4.20;;
2860;SDS011;1438;50.922;6.704;2022-10-30T12:30:21;13.50;;;4.67;;
2860;SDS011;1438;50.922;6.704;2022-10-30T12:35:34;11.93;;;4.33;;
2860;SDS011;1438;50.922;6.704;2022-10-30T12:38:01;11.60;;;5.20;;
2860;SDS011;1438;50.922;6.704;2022-10-30T12:40:35;11.90;;;4.63;;
2860;SDS011;1438;50.922;6.704;2022-10-30T12:45:44;10.10;;;4.90;;
2860;SDS011;1438;50.922;6.704;2022-10-30T12:53:54;11.00;;;5.47;;
2860;SDS011;1438;50.922;6.704;2022-10-30T12:56:40;9.93;;;5.67;;
2860;SDS011;1438;50.922;6.704;2022-10-30T13:01:48;7.93;;;4.83;;
2860;SDS011;1438;50.922;6.704;2022-10-30T13:04:25;11.70;;;5.10;;
2860;SDS011;1438;50.922;6.704;2022-10-30T13:12:59;8.83;;;4.03;;
2860;SDS011;1438;50.922;6.704;2022-10-30T13:15:34;11.33;;;3.97;;
2860;SDS011;1438;50.922;6.704;2022-10-30T13:18:16;9.10;;;4.33;;
2860;SDS011;1438;50.922;6.704;2022-10-30T13:24:54;12.27;;;4.40;;
2860;SDS011;1438;50.922;6.704;2022-10-30T13:27:04;8.10;;;4.07;;
2860;SDS011;1438;50.922;6.704;2022-10-30T13:40:56;6.70;;;3.40;;
2860;SDS011;1438;50.922;6.704;2022-10-30T13:43:41;7.53;;;3.13;;
2860;SDS011;1438;50.922;6.704;2022-10-30T13:54:07;8.73;;;3.27;;
2860;SDS011;1438;50.922;6.704;2022-10-30T13:56:53;6.53;;;4.13;;
2860;SDS011;1438;50.922;6.704;2022-10-30T14:02:16;9.33;;;4.00;;
2860;SDS011;1438;50.922;6.704;2022-10-30T14:07:48;8.20;;;3.87;;
2860;SDS011;1438;50.922;6.704;2022-10-30T14:15:40;9.43;;;3.73;;
2860;SDS011;1438;50.922;6.704;2022-10-30T14:20:49;10.23;;;4.37;;
2860;SDS011;1438;50.922;6.704;2022-10-30T14:28:28;7.70;;;3.37;;
2860;SDS011;1438;50.922;6.704;2022-10-30T14:31:02;5.73;;;3.50;;
2860;SDS011;1438;50.922;6.704;2022-10-30T14:38:54;8.20;;;3.90;;
2860;SDS011;1438;50.922;6.704;2022-10-30T14:41:34;9.90;;;3.67;;
2860;SDS011;1438;50.922;6.704;2022-10-30T14:44:25;6.90;;;3.50;;
2860;SDS011;1438;50.922;6.704;2022-10-30T14:47:22;9.47;;;3.63;;
2860;SDS011;1438;50.922;6.704;2022-10-30T14:50:02;10.30;;;3.53;;
2860;SDS011;1438;50.922;6.704;2022-10-30T14:55:28;5.50;;;3.70;;
2860;SDS011;1438;50.922;6.704;2022-10-30T14:58:17;4.37;;;2.97;;
2860;SDS011;1438;50.922;6.704;2022-10-30T15:00:46;8.90;;;3.47;;
2860;SDS011;1438;50.922;6.704;2022-10-30T15:13:50;4.10;;;2.30;;
2860;SDS011;1438;50.922;6.704;2022-10-30T15:16:19;4.63;;;2.60;;
2860;SDS011;1438;50.922;6.704;2022-10-30T15:18:48;5.50;;;2.77;;
2860;SDS011;1438;50.922;6.704;2022-10-30T15:21:23;6.47;;;2.50;;
2860;SDS011;1438;50.922;6.704;2022-10-30T15:23:53;6.33;;;2.80;;
2860;SDS011;1438;50.922;6.704;2022-10-30T15:26:25;4.90;;;2.53;;
2860;SDS011;1438;50.922;6.704;2022-10-30T15:28:58;4.37;;;2.70;;
2860;SDS011;1438;50.922;6.704;2022-10-30T15:31:26;6.47;;;2.70;;
2860;SDS011;1438;50.922;6.704;2022-10-30T15:33:53;8.57;;;3.10;;
2860;SDS011;1438;50.922;6.704;2022-10-30T15:36:23;5.93;;;3.20;;
2860;SDS011;1438;50.922;6.704;2022-10-30T15:41:44;8.23;;;2.83;;
2860;SDS011;1438;50.922;6.704;2022-10-30T15:44:28;4.50;;;4.00;;
2860;SDS011;1438;50.922;6.704;2022-10-30T15:46:57;6.83;;;3.37;;
2860;SDS011;1438;50.922;6.704;2022-10-30T15:49:35;5.93;;;2.90;;
2860;SDS011;1438;50.922;6.704;2022-10-30T15:52:21;3.63;;;2.77;;
2860;SDS011;1438;50.922;6.704;2022-10-30T15:54:59;9.60;;;3.10;;
2860;SDS011;1438;50.922;6.704;2022-10-30T15:57:30;4.60;;;2.90;;
2860;SDS011;1438;50.922;6.704;2022-10-30T16:00:00;7.03;;;3.67;;
2860;SDS011;1438;50.922;6.704;2022-10-30T16:02:31;5.73;;;3.70;;
2860;SDS011;1438;50.922;6.704;2022-10-30T16:04:57;7.10;;;3.00;;
2860;SDS011;1438;50.922;6.704;2022-10-30T16:07:24;8.63;;;3.13;;
2860;SDS011;1438;50.922;6.704;2022-10-30T16:09:52;9.43;;;3.53;;
2860;SDS011;1438;50.922;6.704;2022-10-30T16:12:26;6.57;;;3.43;;
2860;SDS011;1438;50.922;6.704;2022-10-30T16:14:54;9.20;;;2.80;;
2860;SDS011;1438;50.922;6.704;2022-10-30T16:17:21;4.97;;;3.17;;
2860;SDS011;1438;50.922;6.704;2022-10-30T16:19:51;12.20;;;3.20;;
2860;SDS011;1438;50.922;6.704;2022-10-30T16:22:27;6.90;;;3.43;;
2860;SDS011;1438;50.922;6.704;2022-10-30T16:24:55;5.70;;;3.03;;
2860;SDS011;1438;50.922;6.704;2022-10-30T16:27:22;8.53;;;4.20;;
2860;SDS011;1438;50.922;6.704;2022-10-30T16:29:52;12.57;;;4.07;;
2860;SDS011;1438;50.922;6.704;2022-10-30T16:32:26;14.90;;;4.00;;
2860;SDS011;1438;50.922;6.704;2022-10-30T16:35:00;6.43;;;3.60;;
2860;SDS011;1438;50.922;6.704;2022-10-30T16:37:34;8.00;;;4.43;;
2860;SDS011;1438;50.922;6.704;2022-10-30T16:40:08;13.03;;;5.60;;
2860;SDS011;1438;50.922;6.704;2022-10-30T16:42:40;8.87;;;5.90;;
2860;SDS011;1438;50.922;6.704;2022-10-30T16:47:35;8.27;;;3.90;;
2860;SDS011;1438;50.922;6.704;2022-10-30T16:50:03;10.00;;;4.53;;
2860;SDS011;1438;50.922;6.704;2022-10-30T16:52:34;11.43;;;3.37;;
2860;SDS011;1438;50.922;6.704;2022-10-30T16:57:46;9.17;;;4.60;;
2860;SDS011;1438;50.922;6.704;2022-10-30T17:00:20;11.33;;;4.93;;
2860;SDS011;1438;50.922;6.704;2022-10-30T17:02:50;8.80;;;4.23;;
2860;SDS011;1438;50.922;6.704;2022-10-30T17:05:18;10.40;;;3.87;;
2860;SDS011;1438;50.922;6.704;2022-10-30T17:07:53;13.43;;;4.70;;
2860;SDS011;1438;50.922;6.704;2022-10-30T17:10:31;11.60;;;3.47;;
2860;SDS011;1438;50.922;6.704;2022-10-30T17:15:52;6.93;;;4.60;;
2860;SDS011;1438;50.922;6.704;2022-10-30T17:18:18;6.63;;;3.10;;
2860;SDS011;1438;50.922;6.704;2022-10-30T17:20:45;14.17;;;3.90;;
2860;SDS011;1438;50.922;6.704;2022-10-30T17:23:25;5.53;;;3.87;;
2860;SDS011;1438;50.922;6.704;2022-10-30T17:25:51;11.23;;;4.50;;
2860;SDS011;1438;50.922;6.704;2022-10-30T17:28:32;9.80;;;4.30;;
2860;SDS011;1438;50.922;6.704;2022-10-30T17:33:47;8.77;;;4.60;;
2860;SDS011;1438;50.922;6.704;2022-10-30T17:36:34;6.60;;;3.60;;
2860;SDS011;1438;50.922;6.704;2022-10-30T17:38:59;8.30;;;4.20;;
2860;SDS011;1438;50.922;6.704;2022-10-30T17:41:25;9.47;;;5.00;;
2860;SDS011;1438;50.922;6.704;2022-10-30T17:43:51;12.40;;;6.73;;
2860;SDS011;1438;50.922;6.704;2022-10-30T17:46:19;9.83;;;4.57;;
2860;SDS011;1438;50.922;6.704;2022-10-30T17:48:46;8.77;;;4.87;;
2860;SDS011;1438;50.922;6.704;2022-10-30T17:51:11;12.40;;;5.20;;
2860;SDS011;1438;50.922;6.704;2022-10-30T17:53:38;21.70;;;15.07;;
2860;SDS011;1438;50.922;6.704;2022-10-30T17:56:05;17.10;;;14.03;;
2860;SDS011;1438;50.922;6.704;2022-10-30T17:58:40;14.37;;;8.00;;
2860;SDS011;1438;50.922;6.704;2022-10-30T18:01:06;15.83;;;9.57;;
2860;SDS011;1438;50.922;6.704;2022-10-30T18:03:35;17.33;;;10.40;;
2860;SDS011;1438;50.922;6.704;2022-10-30T18:06:01;13.10;;;9.00;;
2860;SDS011;1438;50.922;6.704;2022-10-30T18:08:28;13.33;;;9.20;;
2860;SDS011;1438;50.922;6.704;2022-10-30T18:10:53;16.47;;;6.60;;
2860;SDS011;1438;50.922;6.704;2022-10-30T18:13:19;14.43;;;7.70;;
2860;SDS011;1438;50.922;6.704;2022-10-30T18:15:52;12.87;;;8.00;;
2860;SDS011;1438;50.922;6.704;2022-10-30T18:18:21;12.27;;;6.10;;
2860;SDS011;1438;50.922;6.704;2022-10-30T18:20:46;12.33;;;6.70;;